createdAt,value
2019-02-04T00:00:43.443Z,99645.09
2019-02-04T00:03:15.517Z,99647.27
2019-02-04T00:05:45.892Z,99645.09
2019-02-04T00:08:16.169Z,99646.84
2019-02-04T00:10:46.690Z,99645.09
2019-02-04T00:13:16.986Z,99647.45
2019-02-04T00:15:47.780Z,99648.50
2019-02-04T00:18:18.491Z,99645.61
2019-02-04T00:20:49.524Z,99644.09
2019-02-04T00:23:20.025Z,99643.76
2019-02-04T00:25:50.338Z,99642.20
2019-02-04T00:28:20.904Z,99641.92
2019-02-04T00:30:51.190Z,99638.70
2019-02-04T00:33:21.427Z,99641.78
2019-02-04T00:35:51.766Z,99633.91
2019-02-04T00:38:22.313Z,99631.69
2019-02-04T00:40:52.954Z,99634.13
2019-02-04T00:43:23.239Z,99630.33
2019-02-04T00:45:53.551Z,99639.55
2019-02-04T00:48:23.791Z,99635.37
2019-02-04T00:50:54.199Z,99634.34
2019-02-04T00:53:25.557Z,99639.21
2019-02-04T00:55:56.224Z,99644.66
2019-02-04T00:58:26.518Z,99640.82
2019-02-04T01:00:57.601Z,99640.42
2019-02-04T01:03:28.190Z,99639.57
2019-02-04T01:05:59.775Z,99651.81
2019-02-04T01:08:30.351Z,99650.60
2019-02-04T01:11:01.140Z,99656.80
2019-02-04T01:13:31.497Z,99660.17
2019-02-04T01:16:02.173Z,99668.84
2019-02-04T01:18:32.838Z,99670.20
2019-02-04T01:21:03.119Z,99672.28
2019-02-04T01:23:34.384Z,99669.66
2019-02-04T01:26:04.923Z,99675.08
2019-02-04T01:28:35.125Z,99678.24
2019-02-04T01:31:05.759Z,99683.75
2019-02-04T01:33:36.728Z,99686.42
2019-02-04T01:36:07.667Z,99687.41
2019-02-04T01:38:38.707Z,99688.77
2019-02-04T01:41:09.006Z,99692.29
2019-02-04T01:43:39.239Z,99690.97
2019-02-04T01:46:09.536Z,99693.59
2019-02-04T01:48:40.109Z,99694.42
2019-02-04T01:51:11.151Z,99705.30
2019-02-04T01:53:41.434Z,99709.36
2019-02-04T01:56:11.928Z,99705.51
2019-02-04T01:58:42.183Z,99700.31
2019-02-04T02:01:12.400Z,99701.21
2019-02-04T02:03:42.643Z,99696.91
2019-02-04T02:06:12.950Z,99699.98
2019-02-04T02:08:43.427Z,99705.99
2019-02-04T02:11:14.047Z,99705.14
2019-02-04T02:13:44.338Z,99709.59
2019-02-04T02:16:14.566Z,99703.53
2019-02-04T02:18:45.134Z,99712.28
2019-02-04T02:21:15.737Z,99708.42
2019-02-04T02:23:46.293Z,99699.75
2019-02-04T02:26:16.928Z,99706.33
2019-02-04T02:28:47.220Z,99702.44
2019-02-04T02:31:18.258Z,99703.74
2019-02-04T02:33:49.235Z,99707.88
2019-02-04T02:36:20.480Z,99709.19
2019-02-04T02:38:51.125Z,99714.63
2019-02-04T02:41:22.049Z,99713.48
2019-02-04T02:43:52.338Z,99720.51
2019-02-04T02:46:22.567Z,99723.61
2019-02-04T02:48:52.790Z,99726.68
2019-02-04T02:51:23.425Z,99719.69
2019-02-04T02:53:53.976Z,99717.55
2019-02-04T02:56:24.923Z,99710.59
2019-02-04T02:58:55.557Z,99717.10
2019-02-04T03:01:26.391Z,99726.72
2019-02-04T03:03:57.022Z,99724.58
2019-02-04T03:06:27.654Z,99725.06
2019-02-04T03:08:57.936Z,99722.00
2019-02-04T03:11:28.819Z,99729.02
2019-02-04T03:13:59.409Z,99730.39
2019-02-04T03:19:36.875Z,99726.94
2019-02-04T03:22:07.220Z,99737.02
2019-02-04T03:24:37.818Z,99738.77
2019-02-04T03:27:08.453Z,99734.02
2019-02-04T03:29:38.705Z,99746.69
2019-02-04T03:32:09.625Z,99744.54
2019-02-04T03:34:40.137Z,99750.05
2019-02-04T03:37:10.458Z,99757.84
2019-02-04T03:39:40.718Z,99754.30
2019-02-04T03:42:10.997Z,99758.73
2019-02-04T03:44:41.286Z,99751.00
2019-02-04T03:47:12.174Z,99748.47
2019-02-04T03:49:42.429Z,99738.92
2019-02-04T03:52:12.707Z,99739.83
2019-02-04T03:54:43.342Z,99737.66
2019-02-04T03:57:13.569Z,99739.02
2019-02-04T03:59:45.640Z,99740.77
2019-02-04T04:02:16.476Z,99736.43
2019-02-04T04:04:47.753Z,99731.14
2019-02-04T04:07:18.022Z,99727.20
2019-02-04T04:09:48.644Z,99729.77
2019-02-04T04:12:19.196Z,99722.36
2019-02-04T04:14:49.938Z,99717.55
2019-02-04T04:17:20.254Z,99713.66
2019-02-04T04:19:50.897Z,99711.48
2019-02-04T04:22:21.494Z,99709.33
2019-02-04T04:24:51.684Z,99712.84
2019-02-04T04:27:23.429Z,99718.55
2019-02-04T04:29:54.047Z,99729.00
2019-02-04T04:32:24.359Z,99720.61
2019-02-04T04:34:55.001Z,99733.87
2019-02-04T04:37:25.308Z,99733.84
2019-02-04T04:39:55.957Z,99728.09
2019-02-04T04:42:27.806Z,99737.29
2019-02-04T04:44:58.450Z,99737.25
2019-02-04T04:47:29.397Z,99735.15
2019-02-04T04:50:01.010Z,99737.29
2019-02-04T04:52:31.276Z,99736.94
2019-02-04T04:55:01.637Z,99740.38
2019-02-04T04:57:32.839Z,99739.97
2019-02-04T05:00:03.204Z,99735.21
2019-02-04T05:02:34.522Z,99737.86
2019-02-04T05:05:05.694Z,99737.89
2019-02-04T05:07:36.286Z,99734.49
2019-02-04T05:10:07.857Z,99740.20
2019-02-04T05:12:38.235Z,99751.97
2019-02-04T05:15:10.231Z,99749.80
2019-02-04T05:17:40.859Z,99759.84
2019-02-04T05:20:12.601Z,99755.00
2019-02-04T05:22:42.852Z,99763.33
2019-02-04T05:25:13.778Z,99768.55
2019-02-04T05:27:44.721Z,99772.42
2019-02-04T05:30:17.227Z,99778.59
2019-02-04T05:32:48.441Z,99780.39
2019-02-04T05:35:19.012Z,99772.14
2019-02-04T05:37:49.704Z,99775.16
2019-02-04T05:40:20.307Z,99768.95
2019-02-04T05:42:50.875Z,99755.76
2019-02-04T05:45:21.134Z,99749.27
2019-02-04T05:47:51.733Z,99747.18
2019-02-04T05:50:22.352Z,99753.72
2019-02-04T05:52:53.302Z,99753.28
2019-02-04T05:55:24.184Z,99757.63
2019-02-04T05:57:54.754Z,99745.88
2019-02-04T06:00:38.422Z,99738.89
2019-02-04T06:03:08.990Z,99749.84
2019-02-04T06:05:39.242Z,99745.02
2019-02-04T06:08:09.792Z,99744.62
2019-02-04T06:10:40.366Z,99743.59
2019-02-04T06:13:10.914Z,99740.14
2019-02-04T06:15:41.240Z,99739.34
2019-02-04T06:18:11.759Z,99738.95
2019-02-04T06:20:41.974Z,99736.38
2019-02-04T06:23:12.215Z,99726.38
2019-02-04T06:25:42.460Z,99722.48
2019-02-04T06:28:12.731Z,99721.63
2019-02-04T06:30:43.009Z,99719.48
2019-02-04T06:33:13.937Z,99719.89
2019-02-04T06:35:44.466Z,99715.06
2019-02-04T06:38:15.098Z,99716.42
2019-02-04T06:40:45.374Z,99710.22
2019-02-04T06:43:15.964Z,99705.89
2019-02-04T06:45:46.288Z,99709.83
2019-02-04T06:48:16.944Z,99712.08
2019-02-04T06:50:47.772Z,99712.52
2019-02-04T06:53:18.803Z,99714.20
2019-02-04T06:55:49.081Z,99717.13
2019-02-04T06:58:19.870Z,99724.11
2019-02-04T07:00:50.539Z,99734.13
2019-02-04T07:03:21.016Z,99746.81
2019-02-04T07:05:51.241Z,99757.32
2019-02-04T07:08:21.498Z,99760.26
2019-02-04T07:10:52.103Z,99754.61
2019-02-04T07:13:23.347Z,99763.78
2019-02-04T07:15:53.657Z,99761.56
2019-02-04T07:18:24.263Z,99757.98
2019-02-04T07:20:54.620Z,99759.77
2019-02-04T07:23:25.157Z,99762.30
2019-02-04T07:25:57.018Z,99764.89
2019-02-04T07:28:27.963Z,99768.34
2019-02-04T07:30:58.272Z,99777.88
2019-02-04T07:33:28.558Z,99777.83
2019-02-04T07:35:58.918Z,99774.28
2019-02-04T07:38:29.484Z,99778.59
2019-02-04T07:40:59.873Z,99778.52
2019-02-04T07:43:30.435Z,99781.52
2019-02-04T07:46:00.732Z,99776.59
2019-02-04T07:48:31.103Z,99779.14
2019-02-04T07:51:01.801Z,99785.16
2019-02-04T07:53:33.046Z,99792.08
2019-02-04T07:56:03.390Z,99788.12
2019-02-04T07:58:34.002Z,99782.84
2019-02-04T08:01:04.640Z,99780.58
2019-02-04T08:03:35.036Z,99776.61
2019-02-04T08:06:05.414Z,99781.34
2019-02-04T08:08:35.659Z,99785.16
2019-02-04T08:11:05.948Z,99778.95
2019-02-04T08:13:36.344Z,99789.77
2019-02-04T08:16:06.905Z,99792.24
2019-02-04T08:18:37.543Z,99800.02
2019-02-04T08:21:08.287Z,99804.75
2019-02-04T08:23:38.522Z,99802.48
2019-02-04T08:26:09.707Z,99806.32
2019-02-04T08:28:40.245Z,99808.48
2019-02-04T08:31:10.793Z,99807.88
2019-02-04T08:33:41.709Z,99810.45
2019-02-04T08:36:12.079Z,99802.13
2019-02-04T08:38:42.682Z,99800.34
2019-02-04T08:41:13.295Z,99800.73
2019-02-04T08:43:43.522Z,99791.91
2019-02-04T08:46:13.794Z,99789.22
2019-02-04T08:48:44.601Z,99786.66
2019-02-04T08:51:14.868Z,99794.00
2019-02-04T08:53:45.451Z,99799.13
2019-02-04T08:56:15.710Z,99799.55
2019-02-04T08:58:46.257Z,99796.06
2019-02-04T09:01:17.098Z,99794.64
2019-02-04T09:03:47.670Z,99785.37
2019-02-04T09:06:18.718Z,99781.20
2019-02-04T09:08:49.342Z,99776.33
2019-02-04T09:11:19.933Z,99769.55
2019-02-04T09:13:50.489Z,99763.20
2019-02-04T09:16:21.347Z,99757.86
2019-02-04T09:18:51.972Z,99760.27
2019-02-04T09:21:22.611Z,99753.03
2019-02-04T09:23:53.448Z,99748.38
2019-02-04T09:26:24.008Z,99754.34
2019-02-04T09:28:54.276Z,99752.41
2019-02-04T09:31:24.826Z,99750.48
2019-02-04T09:33:55.427Z,99748.61
2019-02-04T09:36:25.994Z,99753.22
2019-02-04T09:38:56.692Z,99749.11
2019-02-04T09:41:26.978Z,99751.09
2019-02-04T09:43:58.297Z,99765.02
2019-02-04T09:46:28.895Z,99765.70
2019-02-04T09:48:59.135Z,99774.21
2019-02-04T09:51:29.411Z,99775.41
2019-02-04T09:53:59.681Z,99783.62
2019-02-04T09:56:30.414Z,99789.49
2019-02-04T09:59:00.648Z,99792.66
2019-02-04T10:01:31.396Z,99797.60
2019-02-04T10:04:02.027Z,99792.94
2019-02-04T10:06:33.677Z,99793.42
2019-02-04T10:09:05.437Z,99785.66
2019-02-04T10:11:35.733Z,99786.55
2019-02-04T10:14:06.507Z,99778.48
2019-02-04T10:16:37.064Z,99775.55
2019-02-04T10:19:07.572Z,99767.19
2019-02-04T10:21:38.013Z,99773.53
2019-02-04T10:24:08.987Z,99766.55
2019-02-04T10:26:39.531Z,99770.66
2019-02-04T10:29:10.099Z,99763.42
2019-02-04T10:31:40.828Z,99758.00
2019-02-04T10:34:11.509Z,99763.38
2019-02-04T10:36:42.029Z,99752.45
2019-02-04T10:39:12.750Z,99742.78
2019-02-04T10:41:43.245Z,99730.22
2019-02-04T10:44:13.983Z,99728.56
2019-02-04T10:46:44.147Z,99724.57
2019-02-04T10:49:15.403Z,99717.63
2019-02-04T10:51:46.284Z,99717.22
2019-02-04T10:54:16.919Z,99712.12
2019-02-04T10:56:47.208Z,99711.77
2019-02-04T10:59:17.807Z,99711.95
2019-02-04T11:01:48.268Z,99716.08
2019-02-04T11:04:19.023Z,99705.05
2019-02-04T11:06:49.256Z,99705.86
2019-02-04T11:09:19.896Z,99697.36
2019-02-04T11:11:50.815Z,99698.28
2019-02-04T11:14:21.464Z,99697.50
2019-02-04T11:16:52.054Z,99694.39
2019-02-04T11:19:22.385Z,99700.25
2019-02-04T11:21:52.616Z,99680.84
2019-02-04T11:24:23.673Z,99678.45
2019-02-04T11:26:53.944Z,99669.16
2019-02-04T11:29:24.998Z,99661.48
2019-02-04T11:31:55.568Z,99657.27
2019-02-04T11:34:26.368Z,99648.30
2019-02-04T11:36:56.963Z,99635.55
2019-02-04T11:39:27.782Z,99642.37
2019-02-04T11:41:58.468Z,99636.66
2019-02-04T11:44:28.800Z,99630.16
2019-02-04T11:46:59.256Z,99620.52
2019-02-04T11:49:29.895Z,99617.81
2019-02-04T11:52:00.518Z,99612.99
2019-02-04T11:54:31.212Z,99607.77
2019-02-04T11:57:01.393Z,99601.78
2019-02-04T11:59:32.015Z,99595.64
2019-02-04T12:02:02.701Z,99594.65
2019-02-04T12:04:33.639Z,99584.45
2019-02-04T12:07:04.175Z,99583.59
2019-02-04T12:09:34.680Z,99579.94
2019-02-04T12:12:04.938Z,99578.08
2019-02-04T12:14:35.659Z,99568.72
2019-02-04T12:17:06.055Z,99570.09
2019-02-04T12:19:36.923Z,99565.52
2019-02-04T12:22:07.491Z,99569.27
2019-02-04T12:24:38.229Z,99560.66
2019-02-04T12:27:08.442Z,99557.09
2019-02-04T12:29:38.643Z,99558.24
2019-02-04T12:32:09.204Z,99558.66
2019-02-04T12:34:39.730Z,99550.02
2019-02-04T12:37:10.948Z,99555.48
2019-02-04T12:39:41.507Z,99549.04
2019-02-04T12:42:11.856Z,99549.05
2019-02-04T12:44:43.896Z,99546.79
2019-02-04T12:47:14.700Z,99543.33
2019-02-04T12:49:45.570Z,99548.45
2019-02-04T12:52:15.789Z,99557.02
2019-02-04T12:54:47.105Z,99554.99
2019-02-04T12:57:17.372Z,99547.30
2019-02-04T12:59:47.552Z,99548.38
2019-02-04T13:02:18.117Z,99546.69
2019-02-04T13:04:49.403Z,99545.41
2019-02-04T13:07:19.994Z,99543.31
2019-02-04T13:09:50.734Z,99548.30
2019-02-04T13:12:21.360Z,99538.77
2019-02-04T13:14:51.641Z,99531.55
2019-02-04T13:17:22.198Z,99541.86
2019-02-04T13:19:52.808Z,99538.89
2019-02-04T13:22:23.049Z,99539.30
2019-02-04T13:24:53.318Z,99539.13
2019-02-04T13:27:23.595Z,99540.30
2019-02-04T13:29:54.997Z,99541.31
2019-02-04T13:32:25.897Z,99539.86
2019-02-04T13:34:56.439Z,99530.42
2019-02-04T13:37:26.950Z,99534.36
2019-02-04T13:39:57.598Z,99535.37
2019-02-04T13:42:28.213Z,99530.78
2019-02-04T13:44:58.826Z,99529.66
2019-02-04T13:47:29.081Z,99534.85
2019-02-04T13:50:00.324Z,99532.06
2019-02-04T13:52:30.561Z,99534.50
2019-02-04T13:55:00.908Z,99534.55
2019-02-04T13:57:31.611Z,99542.03
2019-02-04T14:00:02.259Z,99537.53
2019-02-04T14:02:32.983Z,99532.61
2019-02-04T14:05:03.570Z,99535.89
2019-02-04T14:07:34.134Z,99533.84
2019-02-04T14:10:15.859Z,99533.92
2019-02-04T14:12:46.179Z,99534.19
2019-02-04T14:15:17.420Z,99532.83
2019-02-04T14:17:48.340Z,99528.40
2019-02-04T14:20:19.715Z,99534.02
2019-02-04T14:22:53.227Z,99532.95
2019-02-04T14:25:22.879Z,99538.52
2019-02-04T14:27:53.428Z,99544.82
2019-02-04T14:30:28.905Z,99544.75
2019-02-04T14:33:00.107Z,99538.76
2019-02-04T14:35:30.380Z,99534.38
2019-02-04T14:38:00.778Z,99533.95
2019-02-04T14:40:31.411Z,99534.48
2019-02-04T14:43:24.510Z,99528.46
2019-02-04T14:46:44.855Z,99537.43
2019-02-04T14:49:46.000Z,99533.81
2019-02-04T14:53:00.683Z,99533.81
2019-02-04T14:56:14.103Z,99536.70
2019-02-04T14:59:08.694Z,99529.97
2019-02-04T15:02:22.240Z,99537.08
2019-02-04T15:05:29.328Z,99535.79
2019-02-04T15:08:36.508Z,99538.30
2019-02-04T15:11:46.946Z,99526.84
2019-02-04T15:14:48.001Z,99525.19
2019-02-04T15:17:26.440Z,99530.02
2019-02-04T15:20:29.569Z,99529.61
2019-02-04T15:23:40.582Z,99528.47
2019-02-04T15:26:46.873Z,99519.84
2019-02-04T15:29:57.090Z,99522.88
2019-02-04T15:33:16.742Z,99526.56
2019-02-04T15:36:17.250Z,99526.73
2019-02-04T15:39:14.925Z,99535.13
2019-02-04T15:42:32.217Z,99535.06
2019-02-04T15:45:29.102Z,99534.30
2019-02-04T15:48:04.478Z,99528.44
2019-02-04T15:51:15.821Z,99531.44
2019-02-04T15:53:46.414Z,99528.98
2019-02-04T15:56:16.656Z,99532.46
2019-02-04T15:58:47.207Z,99527.77
2019-02-04T16:01:17.734Z,99529.26
2019-02-04T16:03:48.244Z,99532.69
2019-02-04T16:06:19.370Z,99542.77
2019-02-04T16:08:50.069Z,99548.68
2019-02-04T16:11:20.559Z,99550.31
2019-02-04T16:13:50.955Z,99553.06
2019-02-04T16:16:22.238Z,99550.02
2019-02-04T16:18:53.183Z,99556.68
2019-02-04T16:21:23.809Z,99550.11
2019-02-04T16:23:54.339Z,99553.13
2019-02-04T16:26:24.711Z,99544.91
2019-02-04T16:28:55.959Z,99547.02
2019-02-04T16:31:26.840Z,99550.83
2019-02-04T16:33:58.309Z,99549.23
2019-02-04T16:36:29.294Z,99550.94
2019-02-04T16:38:59.977Z,99548.67
2019-02-04T16:41:30.649Z,99550.62
2019-02-04T16:44:01.017Z,99553.62
2019-02-04T16:46:31.310Z,99554.05
2019-02-04T16:49:02.299Z,99551.83
2019-02-04T16:51:32.685Z,99547.89
2019-02-04T16:54:03.032Z,99553.51
2019-02-04T16:56:35.841Z,99558.00
2019-02-04T16:59:08.109Z,99556.09
2019-02-04T17:01:39.395Z,99565.15
2019-02-04T17:04:09.704Z,99558.89
2019-02-04T17:06:40.016Z,99564.05
2019-02-04T17:09:12.608Z,99566.82
2019-02-04T17:11:43.413Z,99571.33
2019-02-04T17:14:14.357Z,99574.46
2019-02-04T17:16:46.331Z,99573.14
2019-02-04T17:19:17.153Z,99574.86
2019-02-04T17:21:47.332Z,99572.42
2019-02-04T17:24:18.741Z,99586.66
2019-02-04T17:26:49.059Z,99580.93
2019-02-04T17:29:19.397Z,99586.69
2019-02-04T17:31:50.565Z,99585.55
2019-02-04T17:34:20.830Z,99593.23
2019-02-04T17:36:51.212Z,99593.33
2019-02-04T17:39:23.040Z,99591.47
2019-02-04T17:41:53.768Z,99597.60
2019-02-04T17:44:24.610Z,99606.69
2019-02-04T17:46:55.069Z,99599.53
2019-02-04T17:49:25.460Z,99600.62
2019-02-04T17:51:56.510Z,99599.88
2019-02-04T17:54:28.157Z,99605.78
2019-02-04T17:56:59.101Z,99604.06
2019-02-04T17:59:29.837Z,99608.50
2019-02-04T18:02:00.776Z,99608.58
2019-02-04T18:04:32.565Z,99615.43
2019-02-04T18:07:03.471Z,99614.02
2019-02-04T18:09:33.853Z,99610.64
2019-02-04T18:12:04.222Z,99614.34
2019-02-04T18:14:35.591Z,99613.08
2019-02-04T18:17:06.722Z,99614.42
2019-02-04T18:19:40.215Z,99622.23
2019-02-04T18:22:14.398Z,99620.09
2019-02-04T18:24:45.458Z,99620.17
2019-02-04T18:27:18.396Z,99621.48
2019-02-04T18:29:51.481Z,99621.55
2019-02-04T18:32:24.234Z,99626.95
2019-02-04T18:34:56.491Z,99626.27
2019-02-04T18:37:28.613Z,99626.27
2019-02-04T18:40:00.327Z,99629.93
2019-02-04T18:42:32.363Z,99624.31
2019-02-04T18:45:05.923Z,99621.30
2019-02-04T18:47:39.597Z,99622.68
2019-02-04T18:50:12.846Z,99623.45
2019-02-04T18:52:46.794Z,99621.30
2019-02-04T18:55:20.629Z,99620.98
2019-02-04T18:57:54.273Z,99628.53
2019-02-04T19:00:27.873Z,99627.70
2019-02-04T19:03:03.829Z,99620.64
2019-02-04T19:05:36.793Z,99624.80
2019-02-04T19:08:10.966Z,99621.61
2019-02-04T19:10:43.451Z,99615.86
2019-02-04T19:13:14.827Z,99619.80
2019-02-04T19:15:47.542Z,99613.77
2019-02-04T19:18:19.373Z,99614.70
2019-02-04T19:20:51.068Z,99617.44
2019-02-04T19:23:23.293Z,99609.57
2019-02-04T19:25:54.429Z,99612.36
2019-02-04T19:28:26.672Z,99611.16
2019-02-04T19:31:23.435Z,99611.63
2019-02-04T19:33:55.479Z,99619.14
2019-02-04T19:36:28.715Z,99611.69
2019-02-04T19:39:04.216Z,99610.30
2019-02-04T19:41:39.244Z,99621.73
2019-02-04T19:44:12.316Z,99610.30
2019-02-04T19:46:46.150Z,99610.59
2019-02-04T19:49:20.088Z,99610.97
2019-02-04T19:51:55.171Z,99614.44
2019-02-04T19:54:26.931Z,99606.27
2019-02-04T19:57:00.891Z,99596.68
2019-02-04T19:59:35.818Z,99596.68
2019-02-04T20:02:09.909Z,99597.97
2019-02-04T20:04:44.037Z,99599.58
2019-02-04T20:07:18.792Z,99598.83
2019-02-04T20:10:10.991Z,99604.09
2019-02-04T20:12:44.397Z,99598.38
2019-02-04T20:15:20.699Z,99604.02
2019-02-04T20:17:55.394Z,99596.28
2019-02-04T20:20:28.920Z,99599.69
2019-02-04T20:23:03.297Z,99596.02
2019-02-04T20:25:36.654Z,99601.76
2019-02-04T20:28:09.759Z,99595.66
2019-02-04T20:30:46.109Z,99591.58
2019-02-04T20:33:18.327Z,99592.15
2019-02-04T20:35:53.761Z,99590.77
2019-02-04T20:38:27.490Z,99588.52
2019-02-04T20:41:00.344Z,99582.86
2019-02-04T20:43:32.826Z,99580.05
2019-02-04T20:46:06.985Z,99574.39
2019-02-04T20:48:40.550Z,99576.54
2019-02-04T20:51:13.488Z,99580.86
2019-02-04T20:53:47.514Z,99577.09
2019-02-04T20:56:26.198Z,99577.73
2019-02-04T20:59:00.242Z,99580.59
2019-02-04T21:01:32.754Z,99582.94
2019-02-04T21:04:05.261Z,99582.91
2019-02-04T21:06:38.859Z,99577.07
2019-02-04T21:09:11.964Z,99589.69
2019-02-04T21:11:44.027Z,99588.58
2019-02-04T21:14:15.306Z,99590.15
2019-02-04T21:16:47.498Z,99588.58
2019-02-04T21:19:19.493Z,99590.32
2019-02-04T21:21:52.255Z,99590.17
2019-02-04T21:24:23.693Z,99592.50
2019-02-04T21:26:55.451Z,99582.08
2019-02-04T21:29:27.907Z,99593.75
2019-02-04T21:31:58.657Z,99582.28
2019-02-04T21:34:30.422Z,99580.59
2019-02-04T21:37:01.665Z,99584.02
2019-02-04T21:39:32.911Z,99577.95
2019-02-04T21:42:03.161Z,99576.64
2019-02-04T21:44:33.677Z,99583.22
2019-02-04T21:47:05.529Z,99574.92
2019-02-04T21:49:36.175Z,99579.84
2019-02-04T21:52:06.666Z,99584.23
2019-02-04T21:54:36.905Z,99581.73
2019-02-04T21:57:07.714Z,99579.05
2019-02-04T21:59:38.284Z,99585.62
2019-02-04T22:02:09.139Z,99583.80
2019-02-04T22:04:40.052Z,99572.89
2019-02-04T22:07:10.300Z,99577.90
2019-02-04T22:09:41.415Z,99579.70
2019-02-04T22:12:13.104Z,99582.65
2019-02-04T22:14:43.325Z,99579.16
2019-02-04T22:17:14.250Z,99578.12
2019-02-04T22:19:45.170Z,99575.66
2019-02-04T22:22:16.376Z,99579.64
2019-02-04T22:24:47.262Z,99582.22
2019-02-04T22:27:17.548Z,99581.19
2019-02-04T22:29:48.421Z,99576.81
2019-02-04T22:32:19.012Z,99578.21
2019-02-04T22:34:49.858Z,99583.39
2019-02-04T22:37:20.823Z,99587.41
2019-02-04T22:39:51.109Z,99581.59
2019-02-04T22:42:21.755Z,99581.19
2019-02-04T22:44:51.956Z,99585.17
2019-02-04T22:47:22.501Z,99584.80
2019-02-04T22:49:53.457Z,99591.49
2019-02-04T22:52:23.652Z,99593.27
2019-02-04T22:54:53.868Z,99593.92
2019-02-04T22:57:24.450Z,99600.59
2019-02-04T22:59:55.040Z,99607.75
2019-02-04T23:02:26.311Z,99612.19
2019-02-04T23:04:56.926Z,99614.50
2019-02-04T23:07:27.416Z,99614.59
2019-02-04T23:09:58.974Z,99609.55
2019-02-04T23:12:29.636Z,99612.58
2019-02-04T23:14:59.850Z,99614.45
2019-02-04T23:17:30.425Z,99608.44
2019-02-04T23:20:01.057Z,99608.44
2019-02-04T23:22:31.999Z,99607.08
2019-02-04T23:25:03.196Z,99604.09
2019-02-04T23:27:33.775Z,99613.88
2019-02-04T23:30:05.142Z,99612.83
2019-02-04T23:32:35.695Z,99612.95
2019-02-04T23:35:06.460Z,99626.76
2019-02-04T23:37:36.949Z,99618.19
2019-02-04T23:40:07.666Z,99627.87
2019-02-04T23:42:37.969Z,99630.23
2019-02-04T23:45:08.717Z,99628.05
2019-02-04T23:47:39.000Z,99621.30
2019-02-04T23:50:09.772Z,99612.52
2019-02-04T23:52:40.059Z,99615.72
2019-02-04T23:55:10.825Z,99622.31
2019-02-04T23:57:41.335Z,99620.22
